createdAt,value
2023-03-22T00:04:50.891Z,4.53
2023-03-22T00:09:54.152Z,3.23
2023-03-22T00:15:00.200Z,3.20
2023-03-22T00:20:06.346Z,6.60
2023-03-22T00:25:09.937Z,3.17
2023-03-22T00:30:15.564Z,3.43
2023-03-22T00:35:18.898Z,3.80
2023-03-22T00:40:24.362Z,4.33
2023-03-22T00:45:29.099Z,4.63
2023-03-22T00:50:32.403Z,5.70
2023-03-22T00:55:35.666Z,3.20
2023-03-22T01:00:41.252Z,6.13
2023-03-22T01:05:46.476Z,3.30
2023-03-22T01:10:52.462Z,4.63
2023-03-22T01:15:57.196Z,4.10
2023-03-22T01:21:01.121Z,3.93
2023-03-22T01:26:05.432Z,3.50
2023-03-22T01:31:10.467Z,2.90
2023-03-22T01:36:13.887Z,3.10
2023-03-22T01:41:17.868Z,3.10
2023-03-22T01:46:23.639Z,3.97
2023-03-22T01:51:27.522Z,3.60
2023-03-22T01:56:53.281Z,3.53
2023-03-22T02:02:08.434Z,3.93
2023-03-22T02:07:16.611Z,3.73
2023-03-22T02:12:34.957Z,3.90
2023-03-22T02:18:06.437Z,3.17
2023-03-22T02:23:42.878Z,4.57
2023-03-22T02:28:54.164Z,4.00
2023-03-22T02:34:23.978Z,3.90
2023-03-22T02:39:36.600Z,4.00
2023-03-22T02:44:43.953Z,3.73
2023-03-22T02:49:57.056Z,3.73
2023-03-22T02:55:09.130Z,6.10
2023-03-22T03:00:16.075Z,4.40
2023-03-22T03:05:21.515Z,3.47
2023-03-22T03:10:28.265Z,4.87
2023-03-22T03:15:31.758Z,4.10
2023-03-22T03:20:46.581Z,3.20
2023-03-22T03:26:01.697Z,3.23
2023-03-22T03:31:12.270Z,3.20
2023-03-22T03:36:19.591Z,3.20
2023-03-22T03:41:28.564Z,3.17
2023-03-22T03:46:32.179Z,6.30
2023-03-22T03:51:48.631Z,7.23
2023-03-22T03:56:53.849Z,3.63
2023-03-22T04:01:57.211Z,6.23
2023-03-22T04:07:06.656Z,4.00
2023-03-22T04:12:13.952Z,3.40
2023-03-22T04:17:20.560Z,4.57
2023-03-22T04:22:25.150Z,3.07
2023-03-22T04:27:29.947Z,3.47
2023-03-22T04:32:39.757Z,3.40
2023-03-22T04:37:44.452Z,3.90
2023-03-22T04:42:57.539Z,6.70
2023-03-22T04:48:12.466Z,4.33
2023-03-22T04:53:15.801Z,3.80
2023-03-22T04:58:22.415Z,2.80
2023-03-22T05:03:26.451Z,5.17
2023-03-22T05:08:32.741Z,3.30
2023-03-22T05:13:39.120Z,3.50
2023-03-22T05:18:45.809Z,3.57
2023-03-22T05:23:51.618Z,4.13
2023-03-22T05:28:57.798Z,3.17
2023-03-22T05:34:15.920Z,3.07
2023-03-22T05:39:20.520Z,3.53
2023-03-22T05:44:25.639Z,4.57
2023-03-22T05:49:38.259Z,4.40
2023-03-22T05:54:42.307Z,4.20
2023-03-22T05:59:47.171Z,6.23
2023-03-22T06:04:57.102Z,6.57
2023-03-22T06:10:01.676Z,4.13
2023-03-22T06:15:10.907Z,5.83
2023-03-22T06:20:31.638Z,6.33
2023-03-22T06:25:39.390Z,6.30
2023-03-22T06:30:44.404Z,7.60
2023-03-22T06:36:11.387Z,6.77
2023-03-22T06:41:37.868Z,16.90
2023-03-22T06:46:42.730Z,6.43
2023-03-22T06:51:55.690Z,4.70
2023-03-22T06:56:59.603Z,6.63
2023-03-22T07:02:05.381Z,10.87
2023-03-22T07:07:09.318Z,13.93
2023-03-22T07:12:13.108Z,15.80
2023-03-22T07:17:18.241Z,8.63
2023-03-22T07:22:22.539Z,6.77
2023-03-22T07:27:27.878Z,7.53
2023-03-22T07:32:33.445Z,4.80
2023-03-22T07:37:42.528Z,5.33
2023-03-22T07:42:55.990Z,4.33
2023-03-22T07:48:22.752Z,4.80
2023-03-22T07:53:38.370Z,4.43
2023-03-22T07:58:50.440Z,12.07
2023-03-22T08:03:56.102Z,3.80
2023-03-22T08:09:21.930Z,5.40
2023-03-22T08:14:35.851Z,4.50
2023-03-22T08:19:44.177Z,3.30
2023-03-22T08:24:50.703Z,3.43
2023-03-22T08:30:02.816Z,3.80
2023-03-22T08:35:10.645Z,4.00
2023-03-22T08:40:14.557Z,2.47
2023-03-22T08:45:22.868Z,3.30
2023-03-22T08:50:36.227Z,2.40
2023-03-22T08:55:49.799Z,3.90
2023-03-22T09:01:21.387Z,4.20
2023-03-22T09:06:31.488Z,1.97
2023-03-22T09:11:37.228Z,2.67
2023-03-22T09:16:40.770Z,2.33
2023-03-22T09:21:45.605Z,2.30
2023-03-22T09:26:54.620Z,1.60
2023-03-22T09:31:58.031Z,1.67
2023-03-22T09:37:08.416Z,2.20
2023-03-22T09:42:33.930Z,2.23
2023-03-22T09:47:45.402Z,2.40
2023-03-22T09:52:51.570Z,1.57
2023-03-22T09:58:04.116Z,3.53
2023-03-22T10:03:18.229Z,2.50
2023-03-22T10:08:34.395Z,1.97
2023-03-22T10:13:46.775Z,2.03
2023-03-22T10:18:53.298Z,1.70
2023-03-22T10:24:02.123Z,5.70
2023-03-22T10:29:13.983Z,5.23
2023-03-22T10:34:22.391Z,2.70
2023-03-22T10:39:33.913Z,2.40
2023-03-22T10:44:45.894Z,3.07
2023-03-22T10:49:55.180Z,1.83
2023-03-22T10:55:04.190Z,1.67
2023-03-22T11:00:11.659Z,2.00
2023-03-22T11:05:23.057Z,2.20
2023-03-22T11:10:30.145Z,2.10
2023-03-22T11:15:35.992Z,1.67
2023-03-22T11:20:42.115Z,3.20
2023-03-22T11:25:49.845Z,1.57
2023-03-22T11:31:05.714Z,2.53
2023-03-22T11:36:18.001Z,2.73
2023-03-22T11:41:26.902Z,2.43
2023-03-22T11:46:31.350Z,1.47
2023-03-22T11:51:37.100Z,1.10
2023-03-22T11:56:44.734Z,3.10
2023-03-22T12:01:52.443Z,1.90
2023-03-22T12:06:59.872Z,2.43
2023-03-22T12:12:07.859Z,1.00
2023-03-22T12:17:16.859Z,1.20
2023-03-22T12:22:24.140Z,1.73
2023-03-22T12:27:34.192Z,2.83
2023-03-22T12:32:41.863Z,1.53
2023-03-22T12:37:48.348Z,2.67
2023-03-22T12:43:01.643Z,3.93
2023-03-22T12:48:09.384Z,1.30
2023-03-22T12:53:16.363Z,1.90
2023-03-22T12:58:23.466Z,0.97
2023-03-22T13:03:29.367Z,1.10
2023-03-22T13:09:13.222Z,2.30
2023-03-22T13:14:49.657Z,1.00
2023-03-22T13:19:55.301Z,1.70
2023-03-22T13:25:13.717Z,0.97
2023-03-22T13:30:24.348Z,2.77
2023-03-22T13:35:35.672Z,0.73
2023-03-22T13:40:47.542Z,2.97
2023-03-22T13:46:28.186Z,1.63
2023-03-22T13:51:33.794Z,0.70
2023-03-22T13:56:52.956Z,0.60
2023-03-22T14:02:00.633Z,0.77
2023-03-22T14:07:14.974Z,0.73
2023-03-22T14:12:22.925Z,1.63
2023-03-22T14:17:36.274Z,2.10
